Time;durP1;ratioP1;P1;durP2;ratioP2;P2;SDS_P1;SDS_P2;PMS_P1;PMS_P2;Temp;Humidity;BMP_temperature;BMP_pressure;BME280_temperature;BME280_humidity;BME280_pressure;Samples;Min_cycle;Max_cycle;Signal;HPM_P1;HPM_P2
2022/05/16 00:00:14;;;;;;;3.57;1.57;;;14.20;97.20;;;;;;5106337;28;20510;-69
2022/05/16 00:02:40;;;;;;;9.53;2.00;;;14.20;97.00;;;;;;5105776;28;20195;-68
2022/05/16 00:05:07;;;;;;;3.80;1.23;;;14.20;97.20;;;;;;5094688;28;20479;-69
2022/05/16 00:07:32;;;;;;;5.53;1.53;;;14.20;97.10;;;;;;5105763;28;20625;-70
2022/05/16 00:09:58;;;;;;;4.10;1.60;;;14.20;97.40;;;;;;5106161;28;20564;-68
2022/05/16 00:12:24;;;;;;;4.80;2.00;;;14.20;97.60;;;;;;5106039;28;20191;-68
2022/05/16 00:14:50;;;;;;;10.60;2.13;;;14.10;97.70;;;;;;5105930;28;20188;-68
2022/05/16 00:17:16;;;;;;;2.50;1.07;;;14.10;97.90;;;;;;5105629;28;20425;-69
2022/05/16 00:19:42;;;;;;;4.10;1.40;;;14.10;98.10;;;;;;5106536;28;20319;-68
2022/05/16 00:22:09;;;;;;;5.10;2.13;;;14.10;98.60;;;;;;5105549;28;20222;-67
2022/05/16 00:24:37;;;;;;;7.30;1.57;;;14.00;98.20;;;;;;5095711;28;20442;-69
2022/05/16 00:27:03;;;;;;;2.90;1.70;;;14.00;98.40;;;;;;5105725;28;20869;-67
2022/05/16 00:29:29;;;;;;;4.10;1.83;;;14.00;98.60;;;;;;5106262;28;20455;-68
2022/05/16 00:31:55;;;;;;;8.30;2.03;;;14.00;98.50;;;;;;5105513;28;20210;-69
2022/05/16 00:34:22;;;;;;;4.13;1.30;;;13.90;98.50;;;;;;5106097;28;20180;-69
2022/05/16 00:36:48;;;;;;;2.00;1.27;;;13.90;98.90;;;;;;5105687;28;20452;-71
2022/05/16 00:39:18;;;;;;;6.63;1.60;;;13.90;99.40;;;;;;5106017;28;20425;-69
2022/05/16 00:41:45;;;;;;;2.27;1.33;;;13.80;99.50;;;;;;5105678;28;20184;-69
2022/05/16 00:44:12;;;;;;;2.60;1.30;;;13.80;99.60;;;;;;5096747;28;20495;-69
2022/05/16 00:46:38;;;;;;;3.00;1.17;;;13.80;99.90;;;;;;5104678;28;20456;-67
2022/05/16 00:49:08;;;;;;;3.90;1.50;;;13.70;99.70;;;;;;5106109;28;20425;-68
2022/05/16 00:51:43;;;;;;;2.67;1.10;;;13.70;99.90;;;;;;5105431;28;20469;-69
2022/05/16 00:54:17;;;;;;;2.90;1.60;;;13.60;99.90;;;;;;5105803;28;20532;-67
2022/05/16 00:56:45;;;;;;;6.00;1.53;;;13.70;99.90;;;;;;5105579;28;20429;-68
2022/05/16 00:59:10;;;;;;;8.50;1.70;;;13.70;99.90;;;;;;5105890;28;20490;-69
2022/05/16 01:07:06;;;;;;;5.10;1.90;;;13.60;99.90;;;;;;5093765;28;20436;-69
2022/05/16 01:09:32;;;;;;;2.23;1.33;;;13.60;99.90;;;;;;5105713;28;20421;-69
2022/05/16 01:11:58;;;;;;;5.33;2.07;;;13.60;99.90;;;;;;5105087;28;20291;-69
2022/05/16 01:14:49;;;;;;;2.40;1.47;;;13.60;99.90;;;;;;5105715;28;20433;-69
2022/05/16 01:17:15;;;;;;;3.63;1.30;;;13.60;99.90;;;;;;5104920;28;20456;-69
2022/05/16 01:19:41;;;;;;;2.77;1.40;;;13.60;99.90;;;;;;5105817;28;20453;-68
2022/05/16 01:22:22;;;;;;;2.67;1.30;;;13.50;99.90;;;;;;5105252;28;20199;-69
2022/05/16 01:24:48;;;;;;;3.60;1.20;;;13.50;99.90;;;;;;5103177;28;20241;-69
2022/05/16 01:27:14;;;;;;;2.83;1.43;;;13.50;99.90;;;;;;5105437;28;20433;-68
2022/05/16 01:29:39;;;;;;;1.90;1.10;;;13.50;99.90;;;;;;5105489;28;20681;-69
2022/05/16 01:32:05;;;;;;;3.00;1.37;;;13.50;99.90;;;;;;5102669;28;20200;-66
2022/05/16 01:34:31;;;;;;;2.50;1.50;;;13.50;99.90;;;;;;5101657;28;20675;-69
2022/05/16 01:36:57;;;;;;;4.77;1.53;;;13.50;99.90;;;;;;5108485;28;20211;-69
2022/05/16 01:39:22;;;;;;;2.80;1.60;;;13.50;99.90;;;;;;5109763;28;20642;-69
2022/05/16 01:41:48;;;;;;;2.93;1.63;;;13.50;99.90;;;;;;5109256;28;20191;-68
2022/05/16 01:44:14;;;;;;;2.77;1.47;;;13.50;99.90;;;;;;5109141;28;20262;-69
2022/05/16 01:46:40;;;;;;;2.10;1.10;;;13.50;99.90;;;;;;5108660;28;20286;-68
2022/05/16 01:49:08;;;;;;;3.33;1.50;;;13.60;99.90;;;;;;5108957;28;20188;-69
2022/05/16 01:51:35;;;;;;;9.00;1.50;;;13.40;99.90;;;;;;5108049;28;20477;-67
2022/05/16 01:54:03;;;;;;;5.33;1.70;;;13.40;99.70;;;;;;5105991;28;20429;-70
2022/05/16 01:56:33;;;;;;;5.70;2.23;;;13.50;99.20;;;;;;5107440;28;20446;-68
2022/05/16 01:59:01;;;;;;;2.87;1.30;;;13.70;98.70;;;;;;5108380;28;20521;-69
2022/05/16 02:01:27;;;;;;;1.83;1.17;;;13.70;97.80;;;;;;5086983;28;20441;-69
2022/05/16 02:03:53;;;;;;;5.47;1.60;;;14.00;96.70;;;;;;5097939;28;20480;-70
2022/05/16 02:06:19;;;;;;;2.60;1.60;;;14.20;96.00;;;;;;5108317;28;20481;-66
2022/05/16 02:08:47;;;;;;;2.73;1.27;;;14.20;96.10;;;;;;5108560;28;20214;-69
2022/05/16 02:11:13;;;;;;;2.97;1.10;;;14.30;96.10;;;;;;5108424;28;20457;-69
2022/05/16 02:13:40;;;;;;;3.33;1.37;;;14.30;96.50;;;;;;5107829;28;20869;-68
2022/05/16 02:16:07;;;;;;;3.37;1.47;;;14.40;95.80;;;;;;5108331;28;20204;-69
2022/05/16 02:18:33;;;;;;;3.23;1.30;;;14.40;95.70;;;;;;5108556;28;20542;-69
2022/05/16 02:26:28;;;;;;;2.30;1.10;;;14.50;96.20;;;;;;5108112;28;20513;-69
2022/05/16 02:28:54;;;;;;;2.83;1.27;;;14.50;96.70;;;;;;5107860;28;20437;-69
2022/05/16 02:31:20;;;;;;;2.93;1.47;;;14.40;96.80;;;;;;5076158;28;20813;-69
2022/05/16 02:33:47;;;;;;;3.63;1.40;;;14.40;97.10;;;;;;5087436;28;20206;-69
2022/05/16 02:36:13;;;;;;;3.50;1.83;;;14.30;97.90;;;;;;5106587;28;20489;-70
2022/05/16 02:38:38;;;;;;;3.07;1.40;;;14.30;97.60;;;;;;5108559;28;20417;-69
2022/05/16 02:41:04;;;;;;;3.23;1.30;;;14.30;98.20;;;;;;5106986;28;20188;-69
2022/05/16 02:43:30;;;;;;;2.63;1.30;;;14.30;97.90;;;;;;5096689;28;20183;-68
2022/05/16 02:45:55;;;;;;;3.20;1.40;;;14.40;98.20;;;;;;5106832;28;20699;-69
2022/05/16 02:48:21;;;;;;;4.27;1.40;;;14.40;98.00;;;;;;5107555;28;20191;-69
2022/05/16 02:50:47;;;;;;;4.53;1.63;;;14.50;98.10;;;;;;5107770;28;20260;-68
2022/05/16 02:53:12;;;;;;;3.20;1.60;;;14.50;98.60;;;;;;5107405;28;20665;-69
2022/05/16 02:55:38;;;;;;;9.53;2.03;;;14.50;98.50;;;;;;5107841;28;20303;-67
2022/05/16 02:58:07;;;;;;;2.63;1.60;;;14.50;98.70;;;;;;5106885;28;20183;-68
2022/05/16 03:00:33;;;;;;;6.90;1.77;;;14.50;98.40;;;;;;5107475;28;20191;-69
2022/05/16 03:02:58;;;;;;;2.00;1.20;;;14.60;98.60;;;;;;5107030;28;20456;-68
2022/05/16 03:05:24;;;;;;;4.80;1.23;;;14.60;98.80;;;;;;5107815;28;20326;-69
2022/05/16 03:07:49;;;;;;;2.83;1.60;;;14.60;99.30;;;;;;5107045;28;20202;-71
2022/05/16 03:10:15;;;;;;;3.07;1.80;;;14.60;99.30;;;;;;5106761;28;20207;-69
2022/05/16 03:12:43;;;;;;;4.33;1.93;;;14.50;99.60;;;;;;5106620;28;20176;-69
2022/05/16 03:15:09;;;;;;;3.40;1.63;;;14.50;99.90;;;;;;5106952;28;20208;-66
2022/05/16 03:17:35;;;;;;;3.17;1.43;;;14.50;99.90;;;;;;5107184;28;20456;-69
2022/05/16 03:20:02;;;;;;;2.67;1.10;;;14.50;99.90;;;;;;5107364;28;20449;-67
2022/05/16 03:22:27;;;;;;;5.93;1.67;;;14.50;99.90;;;;;;5106375;28;20183;-68
2022/05/16 03:24:53;;;;;;;3.73;1.80;;;14.50;99.90;;;;;;5106834;28;20486;-68
2022/05/16 03:27:19;;;;;;;4.57;2.40;;;14.60;99.90;;;;;;5106783;28;20654;-67
2022/05/16 03:29:46;;;;;;;5.30;1.63;;;14.60;99.90;;;;;;5106808;28;20235;-69
2022/05/16 03:32:12;;;;;;;3.43;1.90;;;14.60;99.90;;;;;;5098718;28;20629;-69
2022/05/16 03:34:37;;;;;;;10.63;2.27;;;14.60;99.90;;;;;;5107117;28;20523;-68
2022/05/16 03:37:03;;;;;;;2.57;1.50;;;14.60;99.90;;;;;;5106297;28;20196;-70
2022/05/16 03:42:13;;;;;;;3.70;1.47;;;14.60;99.90;;;;;;5105999;28;20205;-70
2022/05/16 03:44:39;;;;;;;8.03;2.27;;;14.50;99.90;;;;;;5106731;28;20936;-69
2022/05/16 03:47:05;;;;;;;2.87;1.70;;;14.50;99.90;;;;;;5106123;28;20507;-69
2022/05/16 03:49:30;;;;;;;2.40;1.47;;;14.50;99.90;;;;;;5107054;28;20677;-69
2022/05/16 03:51:57;;;;;;;4.07;1.90;;;14.60;99.90;;;;;;5094957;28;20210;-69
2022/05/16 03:54:22;;;;;;;3.97;1.77;;;14.60;99.90;;;;;;5106720;28;20196;-69
2022/05/16 03:56:48;;;;;;;6.33;2.00;;;14.60;99.90;;;;;;5106167;28;21002;-69
2022/05/16 03:59:14;;;;;;;4.67;2.57;;;14.60;99.90;;;;;;5106170;28;20237;-69
2022/05/16 04:01:39;;;;;;;3.03;1.83;;;14.60;99.90;;;;;;5105561;28;20194;-69
2022/05/16 04:04:05;;;;;;;15.33;1.60;;;14.60;99.90;;;;;;5106126;28;20215;-69
2022/05/16 04:06:34;;;;;;;3.77;2.00;;;14.70;99.90;;;;;;5106154;28;20700;-69
2022/05/16 04:09:00;;;;;;;6.10;2.40;;;14.70;99.90;;;;;;5106205;28;20245;-69
2022/05/16 04:11:25;;;;;;;4.63;2.40;;;14.70;99.90;;;;;;5096852;28;20488;-68
2022/05/16 04:13:52;;;;;;;4.90;1.97;;;14.70;99.90;;;;;;5105414;28;20787;-68
2022/05/16 04:16:17;;;;;;;2.80;1.70;;;14.70;99.90;;;;;;5103383;28;20445;-68
2022/05/16 04:18:44;;;;;;;4.30;1.73;;;14.70;99.90;;;;;;5105500;28;20262;-67
2022/05/16 04:21:11;;;;;;;2.83;1.73;;;14.70;99.90;;;;;;5106205;28;20694;-68
2022/05/16 04:23:36;;;;;;;12.73;1.83;;;14.70;99.90;;;;;;5106217;28;20437;-68
2022/05/16 04:26:02;;;;;;;7.93;1.80;;;14.70;99.90;;;;;;5101682;28;21081;-68
2022/05/16 04:28:28;;;;;;;3.43;1.77;;;14.80;99.90;;;;;;5103423;27;20240;-68
2022/05/16 04:30:54;;;;;;;3.73;1.63;;;14.80;99.90;;;;;;5082400;28;20203;-67
2022/05/16 04:33:19;;;;;;;4.87;1.90;;;14.90;99.90;;;;;;5105236;28;20320;-67
2022/05/16 04:35:45;;;;;;;4.43;1.80;;;14.90;99.90;;;;;;5105826;28;20630;-68
2022/05/16 04:38:11;;;;;;;3.40;1.97;;;15.00;99.90;;;;;;5088954;28;20187;-68
2022/05/16 04:42:40;;;;;;;3.10;1.57;;;15.10;99.90;;;;;;5081094;28;20215;-68
2022/05/16 04:43:22;;;;;;;4.47;2.07;;;15.10;99.90;;;;;;5094910;28;20291;-68
2022/05/16 04:45:48;;;;;;;3.80;1.90;;;15.20;99.90;;;;;;5104789;28;21035;-68
2022/05/16 04:48:13;;;;;;;3.67;1.93;;;15.30;99.90;;;;;;5100917;28;20187;-68
2022/05/16 04:50:39;;;;;;;3.20;2.10;;;15.40;99.90;;;;;;5106082;28;20218;-64
2022/05/16 04:53:05;;;;;;;2.43;1.43;;;15.60;99.90;;;;;;5106303;28;20187;-65
2022/05/16 04:55:31;;;;;;;4.30;1.50;;;15.70;99.90;;;;;;5102391;28;20699;-66
2022/05/16 04:57:57;;;;;;;6.83;2.17;;;15.80;99.90;;;;;;5105530;28;20240;-67
2022/05/16 05:00:23;;;;;;;2.60;1.60;;;15.80;99.90;;;;;;5104984;28;20859;-68
2022/05/16 05:02:49;;;;;;;2.60;1.53;;;15.90;99.90;;;;;;5105046;28;20221;-68
2022/05/16 05:05:16;;;;;;;3.13;1.60;;;15.90;99.90;;;;;;5105850;28;20437;-68
2022/05/16 05:07:43;;;;;;;3.00;2.07;;;16.00;99.90;;;;;;5106737;28;20187;-67
2022/05/16 05:15:40;;;;;;;2.93;1.63;;;16.20;99.90;;;;;;5109341;28;20424;-68
2022/05/16 05:18:06;;;;;;;5.57;1.90;;;16.30;99.90;;;;;;5107444;28;20426;-68
2022/05/16 05:20:33;;;;;;;5.70;1.80;;;16.50;99.90;;;;;;5109529;28;20550;-68
2022/05/16 05:23:01;;;;;;;3.90;1.60;;;16.60;99.90;;;;;;5106025;28;21057;-67
2022/05/16 05:25:27;;;;;;;2.53;1.90;;;16.70;99.90;;;;;;5096690;28;20785;-69
2022/05/16 05:27:53;;;;;;;4.20;2.10;;;16.70;99.90;;;;;;5108153;28;20428;-69
2022/05/16 05:30:23;;;;;;;5.73;2.27;;;16.70;99.90;;;;;;5077862;28;20214;-69
2022/05/16 05:32:48;;;;;;;5.03;1.60;;;16.80;99.90;;;;;;5099531;28;20425;-69
2022/05/16 05:35:15;;;;;;;7.37;2.00;;;16.90;99.90;;;;;;5096884;28;20903;-70
2022/05/16 05:37:41;;;;;;;9.73;2.13;;;17.00;99.90;;;;;;5095873;28;20195;-69
2022/05/16 05:40:07;;;;;;;3.07;1.70;;;17.10;99.90;;;;;;5108762;28;20429;-69
2022/05/16 05:42:34;;;;;;;3.17;1.70;;;17.10;99.90;;;;;;5094619;28;20207;-70
2022/05/16 05:45:00;;;;;;;5.23;1.97;;;17.00;99.90;;;;;;5107364;28;20443;-71
2022/05/16 05:47:27;;;;;;;4.90;2.00;;;17.00;99.90;;;;;;5106723;28;20421;-70
2022/05/16 05:49:53;;;;;;;3.83;1.90;;;16.90;99.90;;;;;;5107394;28;20465;-69
2022/05/16 05:52:19;;;;;;;3.33;1.80;;;16.90;99.90;;;;;;5107332;28;21012;-68
2022/05/16 05:54:46;;;;;;;3.97;1.80;;;16.90;99.90;;;;;;5108321;28;20960;-70
2022/05/16 05:57:13;;;;;;;4.20;2.17;;;17.00;99.90;;;;;;5108220;28;20417;-70
2022/05/16 05:59:39;;;;;;;4.37;1.80;;;17.00;99.90;;;;;;5109008;28;20444;-69
2022/05/16 06:02:07;;;;;;;4.97;2.00;;;17.10;99.90;;;;;;5108408;28;20443;-70
2022/05/16 06:04:33;;;;;;;2.90;1.83;;;17.20;99.90;;;;;;5108573;28;20504;-70
2022/05/16 06:06:58;;;;;;;4.23;1.80;;;17.30;99.90;;;;;;5107838;28;20434;-70
2022/05/16 06:09:24;;;;;;;3.00;1.83;;;17.30;99.90;;;;;;5108213;28;20219;-70
2022/05/16 06:11:50;;;;;;;6.17;2.20;;;17.30;99.90;;;;;;5108512;27;20207;-69
2022/05/16 06:14:16;;;;;;;2.70;1.50;;;17.30;99.90;;;;;;5108287;28;20428;-70
2022/05/16 06:16:42;;;;;;;2.83;1.53;;;17.30;99.90;;;;;;5093840;28;20216;-69
2022/05/16 06:19:11;;;;;;;3.20;1.60;;;17.40;99.90;;;;;;5107973;28;20436;-69
2022/05/16 06:21:37;;;;;;;13.70;2.30;;;17.50;99.90;;;;;;5107155;28;20951;-70
2022/05/16 06:24:03;;;;;;;2.73;1.40;;;17.60;99.80;;;;;;5108394;28;20425;-69
2022/05/16 06:26:29;;;;;;;3.03;1.53;;;17.60;99.30;;;;;;5107327;28;20445;-70
2022/05/16 06:28:56;;;;;;;2.80;1.50;;;17.80;98.80;;;;;;5107856;28;20291;-70
2022/05/16 06:31:21;;;;;;;2.47;1.27;;;17.90;98.30;;;;;;5107488;28;20484;-69
2022/05/16 06:33:47;;;;;;;4.53;1.90;;;18.10;98.20;;;;;;5107951;28;20426;-70
2022/05/16 06:36:13;;;;;;;3.13;1.70;;;18.30;98.00;;;;;;5107164;28;20326;-70
2022/05/16 06:38:39;;;;;;;3.10;1.63;;;18.50;97.40;;;;;;5107444;28;20187;-70
2022/05/16 06:41:05;;;;;;;6.23;1.63;;;18.70;96.90;;;;;;5096420;28;20419;-68
2022/05/16 06:43:32;;;;;;;3.33;1.70;;;18.90;96.90;;;;;;5107594;28;20195;-68
2022/05/16 06:45:59;;;;;;;13.60;2.57;;;19.10;96.30;;;;;;5107448;28;20433;-69
2022/05/16 06:48:25;;;;;;;6.30;2.17;;;19.20;96.00;;;;;;5105575;28;20418;-68
2022/05/16 06:50:52;;;;;;;3.93;1.93;;;19.50;95.90;;;;;;5089101;28;20465;-68
2022/05/16 06:53:21;;;;;;;5.03;1.57;;;19.70;95.90;;;;;;5107356;28;20425;-68
2022/05/16 06:55:47;;;;;;;2.80;1.60;;;19.90;95.60;;;;;;5106803;28;20761;-69
2022/05/16 06:58:13;;;;;;;4.37;1.60;;;20.20;95.50;;;;;;5106304;28;20425;-68
2022/05/16 07:00:39;;;;;;;7.90;2.20;;;20.60;94.20;;;;;;5107327;28;20418;-69
2022/05/16 07:03:05;;;;;;;5.50;1.57;;;20.90;93.70;;;;;;5113194;27;20192;-68
2022/05/16 07:05:31;;;;;;;5.00;1.93;;;21.10;93.00;;;;;;5106834;28;20208;-69
2022/05/16 07:07:57;;;;;;;3.33;2.10;;;21.40;92.50;;;;;;5106603;28;20891;-69
2022/05/16 07:10:24;;;;;;;8.00;1.77;;;21.50;91.90;;;;;;5107278;28;20496;-67
2022/05/16 07:12:51;;;;;;;4.47;1.60;;;21.40;92.10;;;;;;5107264;28;20175;-69
2022/05/16 07:15:17;;;;;;;3.87;2.13;;;21.30;92.10;;;;;;5106609;28;20839;-68
2022/05/16 07:17:43;;;;;;;3.20;1.87;;;21.30;92.30;;;;;;5106702;28;20477;-67
2022/05/16 07:20:10;;;;;;;4.30;1.80;;;21.20;91.90;;;;;;5088605;28;20437;-69
2022/05/16 07:22:39;;;;;;;3.77;2.53;;;21.30;92.30;;;;;;5106264;28;20279;-70
2022/05/16 07:25:05;;;;;;;4.13;1.73;;;21.10;92.30;;;;;;5106841;28;20452;-70
2022/05/16 07:30:15;;;;;;;5.83;2.40;;;21.00;92.60;;;;;;5106611;28;20456;-68
2022/05/16 07:32:43;;;;;;;3.33;1.97;;;21.10;93.20;;;;;;5105643;28;20432;-67
2022/05/16 07:35:15;;;;;;;3.93;1.87;;;21.50;92.80;;;;;;5106539;28;20252;-67
2022/05/16 07:37:41;;;;;;;7.53;2.87;;;22.20;92.10;;;;;;5106219;28;20413;-68
2022/05/16 07:40:09;;;;;;;2.90;1.57;;;22.50;91.00;;;;;;5106760;28;20421;-69
2022/05/16 07:42:35;;;;;;;5.77;1.90;;;22.10;91.50;;;;;;5106128;28;20226;-68
2022/05/16 07:45:02;;;;;;;5.60;2.27;;;21.80;91.80;;;;;;5097853;28;20417;-68
2022/05/16 07:47:30;;;;;;;8.50;2.57;;;21.50;92.10;;;;;;5104939;28;20859;-69
2022/05/16 07:49:59;;;;;;;3.43;1.80;;;21.40;92.60;;;;;;5106341;28;20492;-68
2022/05/16 07:52:26;;;;;;;6.73;2.37;;;21.20;92.90;;;;;;5073641;28;21009;-67
2022/05/16 07:54:52;;;;;;;8.07;2.50;;;21.00;94.20;;;;;;5106226;28;20429;-67
2022/05/16 07:57:18;;;;;;;9.03;2.80;;;20.80;95.60;;;;;;5105904;28;20744;-69
2022/05/16 07:59:46;;;;;;;4.93;2.10;;;20.60;96.40;;;;;;5106445;28;20219;-67
2022/05/16 08:02:12;;;;;;;3.93;2.00;;;20.30;96.60;;;;;;5105994;28;20187;-69
2022/05/16 08:04:39;;;;;;;7.67;2.87;;;20.20;97.60;;;;;;5106239;28;20524;-68
2022/05/16 08:07:04;;;;;;;4.13;2.40;;;20.20;98.00;;;;;;5104820;28;20494;-66
2022/05/16 08:12:27;;;;;;;3.60;2.40;;;20.30;96.80;;;;;;5105950;28;20204;-69
2022/05/16 08:14:53;;;;;;;6.17;2.30;;;20.60;97.50;;;;;;5087602;28;20703;-66
2022/05/16 08:17:20;;;;;;;4.63;2.50;;;21.30;95.80;;;;;;5105614;28;20409;-67
2022/05/16 08:19:45;;;;;;;5.37;2.40;;;21.50;95.00;;;;;;5105988;28;20414;-69
2022/05/16 08:22:11;;;;;;;3.07;2.20;;;21.70;94.60;;;;;;5105288;28;20779;-68
2022/05/16 08:24:37;;;;;;;7.90;2.63;;;21.90;94.10;;;;;;5106231;28;20512;-68
2022/05/16 08:27:03;;;;;;;4.23;2.13;;;21.90;94.90;;;;;;5104684;28;20199;-68
2022/05/16 08:29:30;;;;;;;3.67;2.20;;;22.40;95.00;;;;;;5105630;28;20323;-67
2022/05/16 08:31:56;;;;;;;3.60;2.20;;;23.40;92.70;;;;;;5105509;28;20210;-69
2022/05/16 08:34:23;;;;;;;4.97;2.33;;;24.70;92.10;;;;;;5106838;28;20425;-68
2022/05/16 08:39:52;;;;;;;7.30;1.80;;;26.20;86.00;;;;;;5101529;28;20614;-69
2022/05/16 08:42:22;;;;;;;8.18;2.78;;;27.00;81.70;;;;;;5105865;28;20328;-67
2022/05/16 08:45:31;;;;;;;6.18;3.22;;;27.50;77.80;;;;;;5107016;28;20191;-66
2022/05/16 08:48:23;;;;;;;3.45;2.10;;;27.90;76.10;;;;;;5104107;27;20201;-66
2022/05/16 08:50:54;;;;;;;3.08;2.10;;;27.70;76.30;;;;;;5115948;27;20293;-66
2022/05/16 08:53:29;;;;;;;5.93;2.33;;;27.50;74.20;;;;;;5118880;27;20191;-69
2022/05/16 08:56:02;;;;;;;3.13;1.80;;;27.00;76.00;;;;;;5106321;28;20556;-69
2022/05/16 08:58:37;;;;;;;14.18;2.35;;;26.60;76.80;;;;;;5107212;28;20186;-67
2022/05/16 09:01:13;;;;;;;3.15;2.08;;;26.50;76.40;;;;;;5106446;28;20186;-69
2022/05/16 09:03:46;;;;;;;5.22;2.42;;;26.50;77.90;;;;;;5108423;28;20186;-69
2022/05/16 09:06:52;;;;;;;3.22;1.80;;;26.70;75.20;;;;;;5108043;28;20313;-69
2022/05/16 09:09:25;;;;;;;11.98;2.80;;;26.90;75.30;;;;;;5094840;28;20201;-70
2022/05/16 09:11:54;;;;;;;7.45;2.38;;;27.10;74.90;;;;;;5107834;28;20218;-69
2022/05/16 09:14:31;;;;;;;5.28;2.40;;;27.10;73.20;;;;;;5108104;28;20187;-68
2022/05/16 09:17:08;;;;;;;7.97;2.55;;;27.30;74.10;;;;;;5107509;28;20199;-69
2022/05/16 09:19:48;;;;;;;7.47;2.70;;;26.40;75.60;;;;;;5089472;28;20209;-69
2022/05/16 09:22:32;;;;;;;15.13;3.30;;;26.00;77.00;;;;;;5107817;28;20256;-70
2022/05/16 09:25:13;;;;;;;37.37;3.03;;;25.40;76.90;;;;;;5108215;28;20179;-66
2022/05/16 09:30:27;;;;;;;3.80;1.80;;;24.90;77.70;;;;;;5107586;28;20564;-68
2022/05/16 09:33:09;;;;;;;7.43;2.57;;;24.80;78.10;;;;;;5107759;28;20425;-68
2022/05/16 09:35:50;;;;;;;4.73;2.10;;;24.60;79.30;;;;;;5102551;28;20432;-66
2022/05/16 09:38:16;;;;;;;12.87;1.67;;;24.10;82.80;;;;;;5119209;27;20711;-67
2022/05/16 09:41:13;;;;;;;10.53;2.30;;;23.90;83.10;;;;;;5110659;27;20417;-68
2022/05/16 09:43:43;;;;;;;7.73;2.43;;;23.70;83.40;;;;;;5095261;28;21053;-67
2022/05/16 09:46:34;;;;;;;12.30;2.77;;;23.80;81.70;;;;;;5107619;28;20445;-67
2022/05/16 09:49:07;;;;;;;8.17;2.90;;;24.10;80.50;;;;;;5107127;28;20700;-68
2022/05/16 09:51:46;;;;;;;12.27;2.40;;;24.60;82.00;;;;;;5106666;28;20492;-67
2022/05/16 09:54:26;;;;;;;5.57;1.97;;;24.70;79.30;;;;;;5107744;28;20416;-67
2022/05/16 09:57:09;;;;;;;5.30;2.77;;;24.90;79.00;;;;;;5105605;28;20452;-66
2022/05/16 09:59:34;;;;;;;7.43;2.80;;;24.90;78.30;;;;;;5107505;28;20417;-68
2022/05/16 10:02:09;;;;;;;6.70;2.60;;;24.60;78.60;;;;;;5106459;28;20486;-67
2022/05/16 10:04:41;;;;;;;5.43;2.60;;;24.70;78.00;;;;;;5094025;28;20186;-67
2022/05/16 10:07:08;;;;;;;4.80;2.67;;;24.80;80.20;;;;;;5105811;28;20471;-67
2022/05/16 10:09:37;;;;;;;7.03;2.37;;;24.90;78.30;;;;;;5107370;28;20420;-66
2022/05/16 10:12:07;;;;;;;7.50;2.50;;;25.10;79.00;;;;;;5106493;28;20468;-67
2022/05/16 10:14:36;;;;;;;6.10;2.73;;;25.20;78.40;;;;;;5107076;27;20425;-68
2022/05/16 10:17:03;;;;;;;20.37;2.23;;;25.00;77.20;;;;;;5106247;28;20500;-67
2022/05/16 10:19:31;;;;;;;4.77;2.30;;;24.80;79.40;;;;;;5107123;28;20459;-67
2022/05/16 10:22:05;;;;;;;17.63;4.10;;;24.80;79.10;;;;;;5105554;28;20794;-67
2022/05/16 10:24:52;;;;;;;3.77;2.37;;;24.80;80.50;;;;;;5106475;28;20417;-67
2022/05/16 10:27:32;;;;;;;4.20;2.00;;;24.80;79.40;;;;;;5105180;28;20421;-67
2022/05/16 10:30:02;;;;;;;5.67;2.10;;;24.80;78.60;;;;;;5105615;28;20432;-69
2022/05/16 10:35:18;;;;;;;3.80;1.87;;;24.10;82.00;;;;;;5106368;28;21084;-66
2022/05/16 10:37:46;;;;;;;4.77;2.37;;;23.60;84.30;;;;;;5105793;28;20421;-67
2022/05/16 10:40:19;;;;;;;8.43;2.20;;;23.10;84.40;;;;;;5106692;28;20428;-68
2022/05/16 10:42:53;;;;;;;2.90;0.97;;;22.70;81.20;;;;;;5105642;28;20508;-68
2022/05/16 10:45:22;;;;;;;4.00;1.63;;;22.50;82.60;;;;;;5106161;28;20437;-68
2022/05/16 10:48:14;;;;;;;5.33;2.20;;;22.30;83.10;;;;;;5104892;28;20506;-68
2022/05/16 10:51:24;;;;;;;8.30;2.07;;;22.30;84.20;;;;;;5105627;28;20497;-68
2022/05/16 10:54:06;;;;;;;2.97;1.40;;;22.10;84.30;;;;;;5088836;28;20437;-68
2022/05/16 10:56:32;;;;;;;3.37;1.80;;;21.90;85.50;;;;;;5093407;28;20529;-70
2022/05/16 10:59:20;;;;;;;9.70;2.40;;;21.90;85.80;;;;;;5105540;28;20539;-68
2022/05/16 11:02:11;;;;;;;3.70;1.93;;;21.80;86.20;;;;;;5095950;28;20191;-69
2022/05/16 11:04:45;;;;;;;3.70;1.93;;;21.60;86.90;;;;;;5093699;28;20475;-68
2022/05/16 11:07:27;;;;;;;6.03;1.53;;;21.20;85.80;;;;;;5103707;28;21277;-68
2022/05/16 11:09:58;;;;;;;10.43;1.23;;;20.90;86.40;;;;;;5105220;28;20427;-70
2022/05/16 11:12:31;;;;;;;3.93;1.47;;;20.70;87.10;;;;;;5105674;28;20429;-69
2022/05/16 11:15:06;;;;;;;6.53;2.03;;;20.60;86.70;;;;;;5104798;28;20421;-68
2022/05/16 11:17:40;;;;;;;2.70;1.73;;;20.40;85.10;;;;;;5103067;28;20421;-70
2022/05/16 11:20:23;;;;;;;4.93;1.70;;;20.20;86.50;;;;;;5106214;28;20481;-69
2022/05/16 11:23:07;;;;;;;3.63;1.20;;;20.00;87.60;;;;;;5098173;28;20804;-68
2022/05/16 11:25:40;;;;;;;3.00;1.70;;;20.00;88.60;;;;;;5097626;28;20451;-68
2022/05/16 11:28:08;;;;;;;3.83;1.60;;;20.00;89.20;;;;;;5101259;28;20417;-69
2022/05/16 11:30:46;;;;;;;4.43;1.27;;;19.80;90.20;;;;;;5101162;28;20461;-67
2022/05/16 11:33:25;;;;;;;10.90;1.63;;;19.70;90.40;;;;;;5100690;28;20418;-69
2022/05/16 11:35:55;;;;;;;4.33;1.60;;;19.30;92.80;;;;;;5104821;28;20429;-67
2022/05/16 11:38:37;;;;;;;6.77;1.53;;;18.90;94.40;;;;;;5076589;28;20414;-69
2022/05/16 11:41:08;;;;;;;19.83;2.03;;;18.40;96.20;;;;;;5098555;28;20942;-69
2022/05/16 11:43:46;;;;;;;7.80;1.33;;;17.90;96.00;;;;;;5092115;28;20513;-69
2022/05/16 11:46:29;;;;;;;10.13;2.27;;;17.60;96.30;;;;;;5086450;28;20448;-68
2022/05/16 11:49:17;;;;;;;4.33;1.47;;;17.50;98.00;;;;;;5106127;28;20774;-68
2022/05/16 11:51:55;;;;;;;3.20;1.37;;;17.40;98.60;;;;;;5093173;28;20546;-69
2022/05/16 11:54:26;;;;;;;11.13;1.87;;;17.20;99.90;;;;;;5106043;28;20473;-68
2022/05/16 12:02:29;;;;;;;3.70;1.77;;;16.80;99.90;;;;;;5104812;28;20482;-68
2022/05/16 12:05:11;;;;;;;3.50;1.97;;;16.70;99.90;;;;;;5101702;28;20444;-68
2022/05/16 12:07:52;;;;;;;5.03;1.43;;;16.60;99.90;;;;;;5092959;28;20817;-70
2022/05/16 12:10:28;;;;;;;7.23;2.20;;;16.50;99.90;;;;;;5103884;28;20453;-69
2022/05/16 12:13:17;;;;;;;5.60;2.37;;;16.40;99.90;;;;;;5102185;28;20550;-68
2022/05/16 12:15:44;;;;;;;10.50;1.83;;;16.40;99.90;;;;;;5103984;28;20809;-68
2022/05/16 12:18:29;;;;;;;6.33;2.20;;;16.40;99.90;;;;;;5105431;28;20460;-67
2022/05/16 12:20:58;;;;;;;3.87;2.27;;;16.40;99.90;;;;;;5104026;28;20422;-67
2022/05/16 12:23:48;;;;;;;10.13;2.57;;;16.40;99.90;;;;;;5100457;28;20428;-68
2022/05/16 12:26:26;;;;;;;4.90;2.10;;;16.50;99.90;;;;;;5095494;28;20457;-67
2022/05/16 12:29:13;;;;;;;5.07;2.50;;;16.50;99.90;;;;;;5100339;28;20437;-67
2022/05/16 12:31:52;;;;;;;3.20;1.47;;;16.60;99.90;;;;;;5104375;27;21294;-68
2022/05/16 12:34:42;;;;;;;3.83;1.67;;;16.70;99.90;;;;;;5102259;28;20433;-69
2022/05/16 12:37:11;;;;;;;3.83;1.83;;;17.10;99.90;;;;;;5096334;28;20510;-67
2022/05/16 12:40:04;;;;;;;2.83;1.93;;;17.20;99.90;;;;;;5097167;28;20457;-67
2022/05/16 12:43:07;;;;;;;4.67;1.77;;;17.40;99.90;;;;;;5103599;28;20429;-71
2022/05/16 12:45:52;;;;;;;2.80;1.70;;;17.60;99.90;;;;;;5103141;28;20498;-68
2022/05/16 12:48:44;;;;;;;4.73;2.00;;;17.70;99.90;;;;;;5097459;28;20429;-68
2022/05/16 12:51:23;;;;;;;25.83;2.40;;;17.90;99.90;;;;;;5102245;28;20565;-70
2022/05/16 12:54:21;;;;;;;5.20;2.20;;;18.10;99.90;;;;;;5101732;28;20963;-69
2022/05/16 12:56:47;;;;;;;3.57;2.10;;;18.20;99.90;;;;;;5095863;28;21010;-68
2022/05/16 12:59:25;;;;;;;6.70;2.60;;;18.30;99.90;;;;;;5078340;28;20456;-69
2022/05/16 13:02:01;;;;;;;7.43;3.03;;;18.40;99.90;;;;;;5098198;28;20420;-67
2022/05/16 13:04:47;;;;;;;4.13;2.17;;;18.50;99.90;;;;;;5098490;28;20900;-66
2022/05/16 13:07:32;;;;;;;6.57;2.90;;;18.40;99.90;;;;;;5104406;28;21002;-66
2022/05/16 13:10:06;;;;;;;6.47;2.30;;;18.50;99.90;;;;;;5104978;28;20477;-69
2022/05/16 13:12:53;;;;;;;5.60;2.50;;;18.50;99.90;;;;;;5100478;28;20988;-69
2022/05/16 13:15:24;;;;;;;9.93;2.73;;;18.50;99.90;;;;;;5106963;28;20524;-69
2022/05/16 13:17:58;;;;;;;6.47;3.20;;;18.60;99.90;;;;;;5106593;28;20968;-67
2022/05/16 13:20:36;;;;;;;7.13;2.70;;;18.70;99.90;;;;;;5106175;28;20422;-70
2022/05/16 13:23:03;;;;;;;4.47;2.33;;;18.80;99.90;;;;;;5096547;28;20433;-70
2022/05/16 13:25:31;;;;;;;3.67;2.03;;;18.90;99.90;;;;;;5102511;28;20441;-68
2022/05/16 13:30:46;;;;;;;5.00;2.67;;;19.20;99.90;;;;;;5097434;28;20541;-69
2022/05/16 13:33:23;;;;;;;4.17;2.33;;;19.30;99.90;;;;;;5106910;28;20429;-69
2022/05/16 13:35:48;;;;;;;4.60;2.70;;;19.20;99.90;;;;;;5100522;28;20556;-68
2022/05/16 13:38:14;;;;;;;5.60;2.40;;;19.30;99.90;;;;;;5103295;28;20525;-69
2022/05/16 13:40:43;;;;;;;11.23;2.30;;;19.40;99.90;;;;;;5106262;27;20203;-68
2022/05/16 13:43:26;;;;;;;9.73;3.40;;;19.60;99.90;;;;;;5114331;27;20175;-69